sensor_id;sensor_type;location;lat;lon;timestamp;P1;durP1;ratioP1;P2;durP2;ratioP2
4508;SDS011;2267;48.816;9.230;2023-12-20T00:02:14;2.67;;;2.30;;
4508;SDS011;2267;48.816;9.230;2023-12-20T00:04:41;3.90;;;2.37;;
4508;SDS011;2267;48.816;9.230;2023-12-20T00:07:08;3.13;;;2.30;;
4508;SDS011;2267;48.816;9.230;2023-12-20T00:09:35;2.10;;;1.90;;
4508;SDS011;2267;48.816;9.230;2023-12-20T00:12:02;1.80;;;1.60;;
4508;SDS011;2267;48.816;9.230;2023-12-20T00:14:29;2.00;;;1.80;;
4508;SDS011;2267;48.816;9.230;2023-12-20T00:16:56;2.10;;;1.80;;
4508;SDS011;2267;48.816;9.230;2023-12-20T00:19:22;2.27;;;2.07;;
4508;SDS011;2267;48.816;9.230;2023-12-20T00:21:50;2.10;;;1.90;;
4508;SDS011;2267;48.816;9.230;2023-12-20T00:24:17;2.03;;;1.83;;
4508;SDS011;2267;48.816;9.230;2023-12-20T00:26:44;2.10;;;1.90;;
4508;SDS011;2267;48.816;9.230;2023-12-20T00:29:11;2.27;;;2.07;;
4508;SDS011;2267;48.816;9.230;2023-12-20T00:31:37;1.90;;;1.70;;
4508;SDS011;2267;48.816;9.230;2023-12-20T00:34:04;2.10;;;1.90;;
4508;SDS011;2267;48.816;9.230;2023-12-20T00:36:31;2.20;;;1.80;;
4508;SDS011;2267;48.816;9.230;2023-12-20T00:38:58;2.03;;;1.83;;
4508;SDS011;2267;48.816;9.230;2023-12-20T00:41:25;3.20;;;2.00;;
4508;SDS011;2267;48.816;9.230;2023-12-20T00:43:52;2.00;;;1.67;;
4508;SDS011;2267;48.816;9.230;2023-12-20T00:46:19;1.90;;;1.70;;
4508;SDS011;2267;48.816;9.230;2023-12-20T00:48:46;2.30;;;2.10;;
4508;SDS011;2267;48.816;9.230;2023-12-20T00:51:13;1.73;;;1.63;;
4508;SDS011;2267;48.816;9.230;2023-12-20T00:53:40;2.27;;;1.70;;
4508;SDS011;2267;48.816;9.230;2023-12-20T00:56:07;2.63;;;2.03;;
4508;SDS011;2267;48.816;9.230;2023-12-20T00:58:34;2.00;;;1.80;;
4508;SDS011;2267;48.816;9.230;2023-12-20T01:01:01;2.27;;;1.83;;
4508;SDS011;2267;48.816;9.230;2023-12-20T01:03:28;2.53;;;1.30;;
4508;SDS011;2267;48.816;9.230;2023-12-20T01:05:55;2.17;;;1.80;;
4508;SDS011;2267;48.816;9.230;2023-12-20T01:08:22;2.57;;;1.93;;
4508;SDS011;2267;48.816;9.230;2023-12-20T01:10:50;2.23;;;1.80;;
4508;SDS011;2267;48.816;9.230;2023-12-20T01:13:18;2.50;;;2.30;;
4508;SDS011;2267;48.816;9.230;2023-12-20T01:15:45;2.30;;;1.97;;
4508;SDS011;2267;48.816;9.230;2023-12-20T01:18:12;3.53;;;2.20;;
4508;SDS011;2267;48.816;9.230;2023-12-20T01:20:38;2.07;;;1.97;;
4508;SDS011;2267;48.816;9.230;2023-12-20T01:23:05;2.47;;;1.67;;
4508;SDS011;2267;48.816;9.230;2023-12-20T01:25:32;2.80;;;1.87;;
4508;SDS011;2267;48.816;9.230;2023-12-20T01:27:59;2.40;;;2.20;;
4508;SDS011;2267;48.816;9.230;2023-12-20T01:30:26;2.73;;;1.90;;
4508;SDS011;2267;48.816;9.230;2023-12-20T01:32:52;2.53;;;2.33;;
4508;SDS011;2267;48.816;9.230;2023-12-20T01:35:20;2.10;;;1.90;;
4508;SDS011;2267;48.816;9.230;2023-12-20T01:37:47;2.07;;;1.87;;
4508;SDS011;2267;48.816;9.230;2023-12-20T01:40:14;4.03;;;1.90;;
4508;SDS011;2267;48.816;9.230;2023-12-20T01:42:41;2.30;;;2.10;;
4508;SDS011;2267;48.816;9.230;2023-12-20T01:45:08;2.00;;;1.60;;
4508;SDS011;2267;48.816;9.230;2023-12-20T01:47:35;2.67;;;2.40;;
4508;SDS011;2267;48.816;9.230;2023-12-20T01:50:02;2.67;;;2.43;;
4508;SDS011;2267;48.816;9.230;2023-12-20T01:52:31;2.13;;;1.80;;
4508;SDS011;2267;48.816;9.230;2023-12-20T01:55:00;2.17;;;1.97;;
4508;SDS011;2267;48.816;9.230;2023-12-20T01:57:29;2.00;;;1.80;;
4508;SDS011;2267;48.816;9.230;2023-12-20T01:59:57;2.70;;;2.50;;
4508;SDS011;2267;48.816;9.230;2023-12-20T02:02:25;2.40;;;1.87;;
4508;SDS011;2267;48.816;9.230;2023-12-20T02:04:53;2.17;;;1.97;;
4508;SDS011;2267;48.816;9.230;2023-12-20T02:07:20;3.07;;;2.47;;
4508;SDS011;2267;48.816;9.230;2023-12-20T02:09:48;2.27;;;2.07;;
4508;SDS011;2267;48.816;9.230;2023-12-20T02:12:16;2.07;;;1.80;;
4508;SDS011;2267;48.816;9.230;2023-12-20T02:14:42;2.30;;;1.90;;
4508;SDS011;2267;48.816;9.230;2023-12-20T02:17:09;2.93;;;2.00;;
4508;SDS011;2267;48.816;9.230;2023-12-20T02:19:36;2.40;;;2.20;;
4508;SDS011;2267;48.816;9.230;2023-12-20T02:22:10;1.90;;;1.70;;
4508;SDS011;2267;48.816;9.230;2023-12-20T02:24:37;2.40;;;2.20;;
4508;SDS011;2267;48.816;9.230;2023-12-20T02:27:05;2.73;;;2.50;;
4508;SDS011;2267;48.816;9.230;2023-12-20T02:29:33;3.17;;;2.87;;
4508;SDS011;2267;48.816;9.230;2023-12-20T02:32:01;2.30;;;2.10;;
4508;SDS011;2267;48.816;9.230;2023-12-20T02:34:28;3.00;;;2.70;;
4508;SDS011;2267;48.816;9.230;2023-12-20T02:36:56;2.97;;;2.67;;
4508;SDS011;2267;48.816;9.230;2023-12-20T02:39:23;2.73;;;2.53;;
4508;SDS011;2267;48.816;9.230;2023-12-20T02:41:49;2.30;;;2.00;;
4508;SDS011;2267;48.816;9.230;2023-12-20T02:44:16;2.90;;;2.63;;
4508;SDS011;2267;48.816;9.230;2023-12-20T02:46:43;14.70;;;13.30;;
4508;SDS011;2267;48.816;9.230;2023-12-20T02:49:10;5.20;;;4.80;;
4508;SDS011;2267;48.816;9.230;2023-12-20T02:51:37;4.00;;;3.70;;
4508;SDS011;2267;48.816;9.230;2023-12-20T02:54:06;6.43;;;5.57;;
4508;SDS011;2267;48.816;9.230;2023-12-20T02:56:33;2.60;;;2.40;;
4508;SDS011;2267;48.816;9.230;2023-12-20T02:59:00;3.07;;;2.80;;
4508;SDS011;2267;48.816;9.230;2023-12-20T03:01:28;2.53;;;2.33;;
4508;SDS011;2267;48.816;9.230;2023-12-20T03:03:56;2.50;;;2.30;;
4508;SDS011;2267;48.816;9.230;2023-12-20T03:06:23;3.27;;;3.00;;
4508;SDS011;2267;48.816;9.230;2023-12-20T03:08:51;2.20;;;2.00;;
4508;SDS011;2267;48.816;9.230;2023-12-20T03:11:17;3.27;;;2.80;;
4508;SDS011;2267;48.816;9.230;2023-12-20T03:13:44;2.60;;;2.40;;
4508;SDS011;2267;48.816;9.230;2023-12-20T03:16:12;2.93;;;2.63;;
4508;SDS011;2267;48.816;9.230;2023-12-20T03:18:39;2.90;;;2.63;;
4508;SDS011;2267;48.816;9.230;2023-12-20T03:21:06;3.60;;;3.30;;
4508;SDS011;2267;48.816;9.230;2023-12-20T03:23:34;3.17;;;2.87;;
4508;SDS011;2267;48.816;9.230;2023-12-20T03:26:01;3.37;;;3.07;;
4508;SDS011;2267;48.816;9.230;2023-12-20T03:28:28;3.80;;;3.50;;
4508;SDS011;2267;48.816;9.230;2023-12-20T03:30:56;2.07;;;1.80;;
4508;SDS011;2267;48.816;9.230;2023-12-20T03:33:22;2.40;;;2.03;;
4508;SDS011;2267;48.816;9.230;2023-12-20T03:35:49;1.80;;;1.30;;
4508;SDS011;2267;48.816;9.230;2023-12-20T03:38:16;1.40;;;1.10;;
4508;SDS011;2267;48.816;9.230;2023-12-20T03:40:43;1.97;;;1.10;;
4508;SDS011;2267;48.816;9.230;2023-12-20T03:43:10;1.40;;;1.10;;
4508;SDS011;2267;48.816;9.230;2023-12-20T03:45:37;1.60;;;1.00;;
4508;SDS011;2267;48.816;9.230;2023-12-20T03:48:04;1.50;;;1.10;;
4508;SDS011;2267;48.816;9.230;2023-12-20T03:50:31;2.07;;;1.10;;
4508;SDS011;2267;48.816;9.230;2023-12-20T03:52:58;1.40;;;1.03;;
4508;SDS011;2267;48.816;9.230;2023-12-20T03:55:25;1.47;;;1.00;;
4508;SDS011;2267;48.816;9.230;2023-12-20T03:57:52;1.57;;;1.00;;
4508;SDS011;2267;48.816;9.230;2023-12-20T04:00:19;1.97;;;1.10;;
4508;SDS011;2267;48.816;9.230;2023-12-20T04:02:46;1.83;;;0.90;;
4508;SDS011;2267;48.816;9.230;2023-12-20T04:05:13;1.47;;;1.07;;
4508;SDS011;2267;48.816;9.230;2023-12-20T04:07:40;1.50;;;1.20;;
4508;SDS011;2267;48.816;9.230;2023-12-20T04:10:08;1.50;;;1.10;;
4508;SDS011;2267;48.816;9.230;2023-12-20T04:12:35;1.50;;;0.90;;
4508;SDS011;2267;48.816;9.230;2023-12-20T04:15:02;1.40;;;1.00;;
4508;SDS011;2267;48.816;9.230;2023-12-20T04:17:35;1.50;;;1.07;;
4508;SDS011;2267;48.816;9.230;2023-12-20T04:20:02;1.40;;;1.00;;
4508;SDS011;2267;48.816;9.230;2023-12-20T04:22:30;2.00;;;1.13;;
4508;SDS011;2267;48.816;9.230;2023-12-20T04:24:57;1.37;;;0.90;;
4508;SDS011;2267;48.816;9.230;2023-12-20T04:27:24;1.50;;;1.00;;
4508;SDS011;2267;48.816;9.230;2023-12-20T04:29:51;1.47;;;0.87;;
4508;SDS011;2267;48.816;9.230;2023-12-20T04:32:18;1.50;;;1.10;;
4508;SDS011;2267;48.816;9.230;2023-12-20T04:34:45;1.50;;;0.87;;
4508;SDS011;2267;48.816;9.230;2023-12-20T04:37:11;1.67;;;1.10;;
4508;SDS011;2267;48.816;9.230;2023-12-20T04:39:38;1.40;;;0.80;;
4508;SDS011;2267;48.816;9.230;2023-12-20T04:42:07;2.07;;;1.10;;
4508;SDS011;2267;48.816;9.230;2023-12-20T04:44:33;2.80;;;1.00;;
4508;SDS011;2267;48.816;9.230;2023-12-20T04:47:00;1.50;;;1.00;;
4508;SDS011;2267;48.816;9.230;2023-12-20T04:49:27;1.40;;;0.90;;
4508;SDS011;2267;48.816;9.230;2023-12-20T04:51:54;1.33;;;0.97;;
4508;SDS011;2267;48.816;9.230;2023-12-20T04:54:22;1.50;;;1.10;;
4508;SDS011;2267;48.816;9.230;2023-12-20T04:56:49;1.40;;;0.90;;
4508;SDS011;2267;48.816;9.230;2023-12-20T04:59:16;1.73;;;1.13;;
4508;SDS011;2267;48.816;9.230;2023-12-20T05:01:42;1.50;;;0.90;;
4508;SDS011;2267;48.816;9.230;2023-12-20T05:04:09;1.37;;;0.80;;
4508;SDS011;2267;48.816;9.230;2023-12-20T05:06:36;1.97;;;1.00;;
4508;SDS011;2267;48.816;9.230;2023-12-20T05:09:03;1.30;;;0.80;;
4508;SDS011;2267;48.816;9.230;2023-12-20T05:11:30;1.50;;;1.10;;
4508;SDS011;2267;48.816;9.230;2023-12-20T05:13:57;1.40;;;0.97;;
4508;SDS011;2267;48.816;9.230;2023-12-20T05:16:24;1.50;;;0.87;;
4508;SDS011;2267;48.816;9.230;2023-12-20T05:18:51;1.50;;;1.00;;
4508;SDS011;2267;48.816;9.230;2023-12-20T05:21:18;1.50;;;0.90;;
4508;SDS011;2267;48.816;9.230;2023-12-20T05:23:45;1.30;;;0.83;;
4508;SDS011;2267;48.816;9.230;2023-12-20T05:26:12;1.37;;;0.93;;
4508;SDS011;2267;48.816;9.230;2023-12-20T05:28:39;1.30;;;0.90;;
4508;SDS011;2267;48.816;9.230;2023-12-20T05:31:06;1.60;;;1.27;;
4508;SDS011;2267;48.816;9.230;2023-12-20T05:33:33;1.60;;;1.20;;
4508;SDS011;2267;48.816;9.230;2023-12-20T05:36:00;1.60;;;1.00;;
4508;SDS011;2267;48.816;9.230;2023-12-20T05:38:27;1.40;;;0.90;;
4508;SDS011;2267;48.816;9.230;2023-12-20T05:40:54;2.60;;;1.00;;
4508;SDS011;2267;48.816;9.230;2023-12-20T05:43:20;1.50;;;1.00;;
4508;SDS011;2267;48.816;9.230;2023-12-20T05:45:48;1.40;;;0.90;;
4508;SDS011;2267;48.816;9.230;2023-12-20T05:48:15;1.30;;;0.90;;
4508;SDS011;2267;48.816;9.230;2023-12-20T05:50:42;1.70;;;0.97;;
4508;SDS011;2267;48.816;9.230;2023-12-20T05:53:09;1.90;;;0.90;;
4508;SDS011;2267;48.816;9.230;2023-12-20T05:55:36;1.70;;;1.17;;
4508;SDS011;2267;48.816;9.230;2023-12-20T05:58:03;1.40;;;0.90;;
4508;SDS011;2267;48.816;9.230;2023-12-20T06:00:30;1.50;;;1.10;;
4508;SDS011;2267;48.816;9.230;2023-12-20T06:02:57;1.47;;;1.00;;
4508;SDS011;2267;48.816;9.230;2023-12-20T06:05:23;1.50;;;1.10;;
4508;SDS011;2267;48.816;9.230;2023-12-20T06:07:50;1.80;;;1.27;;
4508;SDS011;2267;48.816;9.230;2023-12-20T06:10:17;1.50;;;1.07;;
4508;SDS011;2267;48.816;9.230;2023-12-20T06:12:44;2.20;;;1.63;;
4508;SDS011;2267;48.816;9.230;2023-12-20T06:15:13;2.30;;;1.40;;
4508;SDS011;2267;48.816;9.230;2023-12-20T06:17:40;1.80;;;1.60;;
4508;SDS011;2267;48.816;9.230;2023-12-20T06:20:07;1.93;;;1.73;;
4508;SDS011;2267;48.816;9.230;2023-12-20T06:22:35;1.83;;;1.43;;
4508;SDS011;2267;48.816;9.230;2023-12-20T06:25:02;1.80;;;1.37;;
4508;SDS011;2267;48.816;9.230;2023-12-20T06:27:31;1.67;;;1.40;;
4508;SDS011;2267;48.816;9.230;2023-12-20T06:29:58;2.13;;;1.60;;
4508;SDS011;2267;48.816;9.230;2023-12-20T06:32:25;1.60;;;1.20;;
4508;SDS011;2267;48.816;9.230;2023-12-20T06:34:52;1.80;;;1.50;;
4508;SDS011;2267;48.816;9.230;2023-12-20T06:37:19;1.80;;;1.53;;
4508;SDS011;2267;48.816;9.230;2023-12-20T06:39:46;1.90;;;1.40;;
4508;SDS011;2267;48.816;9.230;2023-12-20T06:42:13;1.57;;;1.20;;
4508;SDS011;2267;48.816;9.230;2023-12-20T06:44:40;1.60;;;1.20;;
4508;SDS011;2267;48.816;9.230;2023-12-20T06:47:07;2.00;;;1.80;;
4508;SDS011;2267;48.816;9.230;2023-12-20T06:49:34;1.93;;;1.40;;
4508;SDS011;2267;48.816;9.230;2023-12-20T06:52:01;1.80;;;1.20;;
4508;SDS011;2267;48.816;9.230;2023-12-20T06:54:28;2.20;;;1.60;;
4508;SDS011;2267;48.816;9.230;2023-12-20T06:56:55;2.60;;;1.93;;
4508;SDS011;2267;48.816;9.230;2023-12-20T06:59:22;3.60;;;1.70;;
4508;SDS011;2267;48.816;9.230;2023-12-20T07:01:48;2.33;;;1.67;;
4508;SDS011;2267;48.816;9.230;2023-12-20T07:04:16;2.03;;;1.70;;
4508;SDS011;2267;48.816;9.230;2023-12-20T07:06:47;2.43;;;1.90;;
4508;SDS011;2267;48.816;9.230;2023-12-20T07:09:17;2.70;;;2.33;;
4508;SDS011;2267;48.816;9.230;2023-12-20T07:11:44;3.93;;;3.53;;
4508;SDS011;2267;48.816;9.230;2023-12-20T07:14:11;2.80;;;2.60;;
4508;SDS011;2267;48.816;9.230;2023-12-20T07:16:38;2.50;;;2.20;;
4508;SDS011;2267;48.816;9.230;2023-12-20T07:19:05;2.60;;;2.40;;
4508;SDS011;2267;48.816;9.230;2023-12-20T07:21:31;2.63;;;2.13;;
4508;SDS011;2267;48.816;9.230;2023-12-20T07:23:58;4.20;;;2.23;;
4508;SDS011;2267;48.816;9.230;2023-12-20T07:26:25;2.60;;;2.40;;
4508;SDS011;2267;48.816;9.230;2023-12-20T07:28:52;3.13;;;2.80;;
4508;SDS011;2267;48.816;9.230;2023-12-20T07:31:19;2.90;;;2.60;;
4508;SDS011;2267;48.816;9.230;2023-12-20T07:33:46;3.30;;;3.10;;
4508;SDS011;2267;48.816;9.230;2023-12-20T07:36:13;3.37;;;2.90;;
4508;SDS011;2267;48.816;9.230;2023-12-20T07:38:40;3.00;;;2.80;;
4508;SDS011;2267;48.816;9.230;2023-12-20T07:41:09;2.60;;;2.40;;
4508;SDS011;2267;48.816;9.230;2023-12-20T07:43:37;3.23;;;2.93;;
4508;SDS011;2267;48.816;9.230;2023-12-20T07:46:07;2.43;;;2.23;;
4508;SDS011;2267;48.816;9.230;2023-12-20T07:48:35;3.30;;;3.00;;
4508;SDS011;2267;48.816;9.230;2023-12-20T07:51:02;2.77;;;2.57;;
4508;SDS011;2267;48.816;9.230;2023-12-20T07:53:34;2.60;;;2.40;;
4508;SDS011;2267;48.816;9.230;2023-12-20T07:56:01;3.53;;;3.23;;
4508;SDS011;2267;48.816;9.230;2023-12-20T07:58:28;2.87;;;2.67;;
4508;SDS011;2267;48.816;9.230;2023-12-20T08:01:15;3.60;;;2.77;;
4508;SDS011;2267;48.816;9.230;2023-12-20T08:03:44;2.80;;;2.60;;
4508;SDS011;2267;48.816;9.230;2023-12-20T08:06:11;2.93;;;2.40;;
4508;SDS011;2267;48.816;9.230;2023-12-20T08:08:38;3.70;;;3.40;;
4508;SDS011;2267;48.816;9.230;2023-12-20T08:11:05;3.93;;;3.20;;
4508;SDS011;2267;48.816;9.230;2023-12-20T08:13:31;3.50;;;3.20;;
4508;SDS011;2267;48.816;9.230;2023-12-20T08:15:58;3.17;;;2.87;;
4508;SDS011;2267;48.816;9.230;2023-12-20T08:18:28;3.13;;;2.93;;
4508;SDS011;2267;48.816;9.230;2023-12-20T08:20:55;4.20;;;3.63;;
4508;SDS011;2267;48.816;9.230;2023-12-20T08:23:22;4.03;;;3.40;;
4508;SDS011;2267;48.816;9.230;2023-12-20T08:25:52;3.90;;;3.60;;
4508;SDS011;2267;48.816;9.230;2023-12-20T08:28:19;3.77;;;3.47;;
4508;SDS011;2267;48.816;9.230;2023-12-20T08:30:46;3.37;;;3.07;;
4508;SDS011;2267;48.816;9.230;2023-12-20T08:33:13;3.70;;;3.40;;
4508;SDS011;2267;48.816;9.230;2023-12-20T08:35:40;4.13;;;3.73;;
4508;SDS011;2267;48.816;9.230;2023-12-20T08:38:07;2.70;;;2.50;;
4508;SDS011;2267;48.816;9.230;2023-12-20T08:43:00;2.80;;;2.60;;
4508;SDS011;2267;48.816;9.230;2023-12-20T08:45:27;3.27;;;3.00;;
4508;SDS011;2267;48.816;9.230;2023-12-20T08:47:54;3.30;;;2.93;;
4508;SDS011;2267;48.816;9.230;2023-12-20T08:50:25;4.17;;;3.83;;
4508;SDS011;2267;48.816;9.230;2023-12-20T08:52:52;4.37;;;3.93;;
4508;SDS011;2267;48.816;9.230;2023-12-20T08:55:19;3.47;;;3.20;;
4508;SDS011;2267;48.816;9.230;2023-12-20T08:57:46;7.63;;;4.00;;
4508;SDS011;2267;48.816;9.230;2023-12-20T09:00:13;2.63;;;2.43;;
4508;SDS011;2267;48.816;9.230;2023-12-20T09:02:41;3.00;;;2.80;;
4508;SDS011;2267;48.816;9.230;2023-12-20T09:05:08;3.07;;;2.77;;
4508;SDS011;2267;48.816;9.230;2023-12-20T09:07:35;3.20;;;2.90;;
4508;SDS011;2267;48.816;9.230;2023-12-20T09:10:02;3.83;;;3.43;;
4508;SDS011;2267;48.816;9.230;2023-12-20T09:12:29;4.43;;;3.63;;
4508;SDS011;2267;48.816;9.230;2023-12-20T09:14:56;3.50;;;3.20;;
4508;SDS011;2267;48.816;9.230;2023-12-20T09:17:22;3.37;;;3.07;;
4508;SDS011;2267;48.816;9.230;2023-12-20T09:19:50;2.87;;;2.67;;
4508;SDS011;2267;48.816;9.230;2023-12-20T09:22:18;3.57;;;2.90;;
4508;SDS011;2267;48.816;9.230;2023-12-20T09:24:46;3.30;;;3.00;;
4508;SDS011;2267;48.816;9.230;2023-12-20T09:27:12;3.40;;;3.10;;
4508;SDS011;2267;48.816;9.230;2023-12-20T09:29:39;3.83;;;2.90;;
4508;SDS011;2267;48.816;9.230;2023-12-20T09:32:06;3.10;;;2.80;;
4508;SDS011;2267;48.816;9.230;2023-12-20T09:34:33;3.40;;;3.10;;
4508;SDS011;2267;48.816;9.230;2023-12-20T09:37:00;4.50;;;2.90;;
4508;SDS011;2267;48.816;9.230;2023-12-20T09:39:27;4.10;;;2.67;;
4508;SDS011;2267;48.816;9.230;2023-12-20T09:42:01;3.07;;;2.50;;
4508;SDS011;2267;48.816;9.230;2023-12-20T09:44:29;3.50;;;2.30;;
4508;SDS011;2267;48.816;9.230;2023-12-20T09:46:56;5.13;;;2.67;;
4508;SDS011;2267;48.816;9.230;2023-12-20T09:49:23;3.60;;;2.80;;
4508;SDS011;2267;48.816;9.230;2023-12-20T09:51:53;3.40;;;2.27;;
4508;SDS011;2267;48.816;9.230;2023-12-20T09:54:21;4.23;;;2.50;;
4508;SDS011;2267;48.816;9.230;2023-12-20T09:56:50;4.77;;;2.70;;
4508;SDS011;2267;48.816;9.230;2023-12-20T09:59:17;3.23;;;2.67;;
4508;SDS011;2267;48.816;9.230;2023-12-20T10:01:44;6.67;;;2.30;;
4508;SDS011;2267;48.816;9.230;2023-12-20T10:04:12;3.00;;;2.27;;
4508;SDS011;2267;48.816;9.230;2023-12-20T10:06:55;5.10;;;2.20;;
4508;SDS011;2267;48.816;9.230;2023-12-20T10:09:23;3.07;;;2.10;;
4508;SDS011;2267;48.816;9.230;2023-12-20T10:11:53;4.67;;;2.33;;
4508;SDS011;2267;48.816;9.230;2023-12-20T10:14:21;5.23;;;2.37;;
4508;SDS011;2267;48.816;9.230;2023-12-20T10:16:49;4.67;;;2.60;;
4508;SDS011;2267;48.816;9.230;2023-12-20T10:19:17;4.00;;;2.23;;
4508;SDS011;2267;48.816;9.230;2023-12-20T10:21:44;4.87;;;1.90;;
4508;SDS011;2267;48.816;9.230;2023-12-20T10:24:16;3.33;;;2.57;;
4508;SDS011;2267;48.816;9.230;2023-12-20T10:26:44;4.93;;;2.00;;
4508;SDS011;2267;48.816;9.230;2023-12-20T10:29:11;4.93;;;2.00;;
4508;SDS011;2267;48.816;9.230;2023-12-20T10:31:38;3.77;;;2.07;;
4508;SDS011;2267;48.816;9.230;2023-12-20T10:34:05;3.90;;;2.30;;
4508;SDS011;2267;48.816;9.230;2023-12-20T10:36:32;4.97;;;2.60;;
4508;SDS011;2267;48.816;9.230;2023-12-20T10:39:00;3.07;;;2.10;;
4508;SDS011;2267;48.816;9.230;2023-12-20T10:41:29;5.00;;;2.40;;
4508;SDS011;2267;48.816;9.230;2023-12-20T10:44:00;2.93;;;2.10;;
4508;SDS011;2267;48.816;9.230;2023-12-20T10:46:29;3.87;;;2.00;;
4508;SDS011;2267;48.816;9.230;2023-12-20T10:48:57;5.83;;;2.50;;
4508;SDS011;2267;48.816;9.230;2023-12-20T10:51:24;5.80;;;2.70;;
4508;SDS011;2267;48.816;9.230;2023-12-20T10:53:56;4.07;;;2.37;;
4508;SDS011;2267;48.816;9.230;2023-12-20T10:56:23;4.67;;;2.13;;
4508;SDS011;2267;48.816;9.230;2023-12-20T10:58:50;4.50;;;2.80;;
4508;SDS011;2267;48.816;9.230;2023-12-20T11:01:17;9.73;;;3.07;;
4508;SDS011;2267;48.816;9.230;2023-12-20T11:03:52;6.10;;;2.50;;
4508;SDS011;2267;48.816;9.230;2023-12-20T11:08:51;4.20;;;2.77;;
4508;SDS011;2267;48.816;9.230;2023-12-20T11:14:52;3.50;;;2.37;;
4508;SDS011;2267;48.816;9.230;2023-12-20T11:17:23;5.17;;;2.67;;
4508;SDS011;2267;48.816;9.230;2023-12-20T11:22:24;5.17;;;2.57;;
4508;SDS011;2267;48.816;9.230;2023-12-20T11:24:52;3.73;;;2.40;;
4508;SDS011;2267;48.816;9.230;2023-12-20T11:27:19;3.30;;;2.20;;
4508;SDS011;2267;48.816;9.230;2023-12-20T11:29:53;3.93;;;2.17;;
4508;SDS011;2267;48.816;9.230;2023-12-20T11:35:00;4.07;;;1.87;;
4508;SDS011;2267;48.816;9.230;2023-12-20T11:37:45;3.87;;;2.40;;
4508;SDS011;2267;48.816;9.230;2023-12-20T11:40:16;4.33;;;2.20;;
4508;SDS011;2267;48.816;9.230;2023-12-20T11:42:45;6.03;;;2.20;;
4508;SDS011;2267;48.816;9.230;2023-12-20T11:45:19;5.10;;;2.10;;
4508;SDS011;2267;48.816;9.230;2023-12-20T11:47:49;6.73;;;2.97;;
4508;SDS011;2267;48.816;9.230;2023-12-20T11:50:17;7.63;;;2.90;;
4508;SDS011;2267;48.816;9.230;2023-12-20T11:52:46;4.80;;;3.17;;
4508;SDS011;2267;48.816;9.230;2023-12-20T11:55:14;3.90;;;1.90;;
4508;SDS011;2267;48.816;9.230;2023-12-20T11:57:41;5.33;;;2.80;;
4508;SDS011;2267;48.816;9.230;2023-12-20T12:00:10;4.47;;;2.90;;
4508;SDS011;2267;48.816;9.230;2023-12-20T12:02:37;6.33;;;2.50;;
4508;SDS011;2267;48.816;9.230;2023-12-20T12:05:04;3.63;;;2.47;;
4508;SDS011;2267;48.816;9.230;2023-12-20T12:07:32;7.13;;;2.87;;
4508;SDS011;2267;48.816;9.230;2023-12-20T12:10:00;4.10;;;3.03;;
4508;SDS011;2267;48.816;9.230;2023-12-20T12:12:27;3.97;;;2.40;;
4508;SDS011;2267;48.816;9.230;2023-12-20T12:14:54;4.73;;;2.20;;
4508;SDS011;2267;48.816;9.230;2023-12-20T12:17:23;6.30;;;3.10;;
4508;SDS011;2267;48.816;9.230;2023-12-20T12:19:50;5.17;;;2.50;;
4508;SDS011;2267;48.816;9.230;2023-12-20T12:22:17;7.60;;;3.13;;
4508;SDS011;2267;48.816;9.230;2023-12-20T12:24:46;4.80;;;2.90;;
4508;SDS011;2267;48.816;9.230;2023-12-20T12:27:13;7.20;;;3.27;;
4508;SDS011;2267;48.816;9.230;2023-12-20T12:29:40;4.43;;;2.70;;
4508;SDS011;2267;48.816;9.230;2023-12-20T12:32:25;3.50;;;2.00;;
4508;SDS011;2267;48.816;9.230;2023-12-20T12:34:52;5.87;;;2.70;;
4508;SDS011;2267;48.816;9.230;2023-12-20T12:37:19;3.27;;;2.10;;
4508;SDS011;2267;48.816;9.230;2023-12-20T12:39:46;6.50;;;3.17;;
4508;SDS011;2267;48.816;9.230;2023-12-20T12:42:13;3.70;;;2.80;;
4508;SDS011;2267;48.816;9.230;2023-12-20T12:44:40;7.50;;;3.17;;
4508;SDS011;2267;48.816;9.230;2023-12-20T12:47:07;5.23;;;2.80;;
4508;SDS011;2267;48.816;9.230;2023-12-20T12:49:34;3.77;;;2.30;;
4508;SDS011;2267;48.816;9.230;2023-12-20T12:52:01;4.80;;;2.13;;
4508;SDS011;2267;48.816;9.230;2023-12-20T12:54:29;5.17;;;2.30;;
4508;SDS011;2267;48.816;9.230;2023-12-20T12:56:56;3.43;;;2.30;;
4508;SDS011;2267;48.816;9.230;2023-12-20T12:59:24;4.93;;;4.00;;
4508;SDS011;2267;48.816;9.230;2023-12-20T13:01:50;3.43;;;2.40;;
4508;SDS011;2267;48.816;9.230;2023-12-20T13:04:17;4.83;;;2.67;;
4508;SDS011;2267;48.816;9.230;2023-12-20T13:06:44;12.40;;;3.17;;
4508;SDS011;2267;48.816;9.230;2023-12-20T13:09:13;3.57;;;3.13;;
4508;SDS011;2267;48.816;9.230;2023-12-20T13:11:41;7.10;;;2.77;;
4508;SDS011;2267;48.816;9.230;2023-12-20T13:14:08;5.70;;;2.30;;
4508;SDS011;2267;48.816;9.230;2023-12-20T13:16:37;3.17;;;1.90;;
4508;SDS011;2267;48.816;9.230;2023-12-20T13:19:04;5.17;;;2.27;;
4508;SDS011;2267;48.816;9.230;2023-12-20T13:21:31;6.03;;;3.33;;
4508;SDS011;2267;48.816;9.230;2023-12-20T13:23:58;4.70;;;2.70;;
4508;SDS011;2267;48.816;9.230;2023-12-20T13:26:25;6.33;;;3.00;;
4508;SDS011;2267;48.816;9.230;2023-12-20T13:28:53;5.97;;;2.90;;
4508;SDS011;2267;48.816;9.230;2023-12-20T13:31:20;5.87;;;2.57;;
4508;SDS011;2267;48.816;9.230;2023-12-20T13:33:47;4.87;;;2.90;;
4508;SDS011;2267;48.816;9.230;2023-12-20T13:36:14;3.80;;;2.53;;
4508;SDS011;2267;48.816;9.230;2023-12-20T13:38:42;4.57;;;1.90;;
4508;SDS011;2267;48.816;9.230;2023-12-20T13:41:09;2.70;;;1.80;;
4508;SDS011;2267;48.816;9.230;2023-12-20T13:43:36;4.77;;;2.13;;
4508;SDS011;2267;48.816;9.230;2023-12-20T13:46:03;3.70;;;1.80;;
4508;SDS011;2267;48.816;9.230;2023-12-20T13:48:29;4.47;;;2.50;;
4508;SDS011;2267;48.816;9.230;2023-12-20T13:50:56;3.63;;;2.13;;
4508;SDS011;2267;48.816;9.230;2023-12-20T13:53:23;5.80;;;2.20;;
4508;SDS011;2267;48.816;9.230;2023-12-20T13:55:50;7.30;;;2.30;;
4508;SDS011;2267;48.816;9.230;2023-12-20T13:58:18;4.93;;;2.13;;
4508;SDS011;2267;48.816;9.230;2023-12-20T14:00:44;4.50;;;2.13;;
4508;SDS011;2267;48.816;9.230;2023-12-20T14:03:11;3.83;;;1.80;;
4508;SDS011;2267;48.816;9.230;2023-12-20T14:05:38;2.53;;;1.80;;
4508;SDS011;2267;48.816;9.230;2023-12-20T14:08:06;5.47;;;2.10;;
4508;SDS011;2267;48.816;9.230;2023-12-20T14:10:34;5.13;;;2.30;;
4508;SDS011;2267;48.816;9.230;2023-12-20T14:13:00;2.77;;;1.60;;
4508;SDS011;2267;48.816;9.230;2023-12-20T14:15:28;4.57;;;2.30;;
4508;SDS011;2267;48.816;9.230;2023-12-20T14:17:54;3.73;;;2.20;;
4508;SDS011;2267;48.816;9.230;2023-12-20T14:20:22;3.00;;;1.90;;
4508;SDS011;2267;48.816;9.230;2023-12-20T14:22:49;5.07;;;2.50;;
4508;SDS011;2267;48.816;9.230;2023-12-20T14:25:15;4.60;;;2.00;;
4508;SDS011;2267;48.816;9.230;2023-12-20T14:27:43;4.87;;;2.67;;
4508;SDS011;2267;48.816;9.230;2023-12-20T14:30:11;3.20;;;1.90;;
4508;SDS011;2267;48.816;9.230;2023-12-20T14:32:41;7.30;;;1.97;;
4508;SDS011;2267;48.816;9.230;2023-12-20T14:35:08;5.23;;;2.60;;
4508;SDS011;2267;48.816;9.230;2023-12-20T14:37:36;5.13;;;2.90;;
4508;SDS011;2267;48.816;9.230;2023-12-20T14:40:06;4.50;;;2.43;;
4508;SDS011;2267;48.816;9.230;2023-12-20T14:42:37;3.90;;;2.07;;
4508;SDS011;2267;48.816;9.230;2023-12-20T14:45:04;3.37;;;2.30;;
4508;SDS011;2267;48.816;9.230;2023-12-20T14:47:31;3.50;;;2.70;;
4508;SDS011;2267;48.816;9.230;2023-12-20T14:49:58;6.27;;;2.07;;
4508;SDS011;2267;48.816;9.230;2023-12-20T14:52:24;5.10;;;2.67;;
4508;SDS011;2267;48.816;9.230;2023-12-20T14:54:51;3.03;;;2.10;;
4508;SDS011;2267;48.816;9.230;2023-12-20T14:57:18;4.10;;;1.90;;
4508;SDS011;2267;48.816;9.230;2023-12-20T14:59:45;5.07;;;2.63;;
4508;SDS011;2267;48.816;9.230;2023-12-20T15:02:12;3.40;;;2.10;;
4508;SDS011;2267;48.816;9.230;2023-12-20T15:04:39;4.37;;;1.87;;
4508;SDS011;2267;48.816;9.230;2023-12-20T15:07:07;4.17;;;1.93;;
4508;SDS011;2267;48.816;9.230;2023-12-20T15:09:34;5.03;;;2.60;;
4508;SDS011;2267;48.816;9.230;2023-12-20T15:12:01;4.13;;;2.60;;
4508;SDS011;2267;48.816;9.230;2023-12-20T15:14:27;6.60;;;2.30;;
4508;SDS011;2267;48.816;9.230;2023-12-20T15:16:55;3.23;;;1.90;;
4508;SDS011;2267;48.816;9.230;2023-12-20T15:19:22;3.50;;;2.13;;
4508;SDS011;2267;48.816;9.230;2023-12-20T15:21:49;3.60;;;2.37;;
4508;SDS011;2267;48.816;9.230;2023-12-20T15:24:16;4.57;;;2.50;;
4508;SDS011;2267;48.816;9.230;2023-12-20T15:26:46;6.00;;;2.40;;
4508;SDS011;2267;48.816;9.230;2023-12-20T15:29:13;3.27;;;2.30;;
4508;SDS011;2267;48.816;9.230;2023-12-20T15:31:42;4.33;;;2.40;;